sensor_id;sensor_type;location;lat;lon;timestamp;P1;durP1;ratioP1;P2;durP2;ratioP2
6977;SDS011;3529;53.244;10.414;2023-04-15T00:00:48;2.10;;;2.00;;
6977;SDS011;3529;53.244;10.414;2023-04-15T00:03:15;2.47;;;2.37;;
6977;SDS011;3529;53.244;10.414;2023-04-15T00:05:41;2.10;;;2.00;;
6977;SDS011;3529;53.244;10.414;2023-04-15T00:08:07;2.70;;;2.07;;
6977;SDS011;3529;53.244;10.414;2023-04-15T00:10:32;2.10;;;2.00;;
6977;SDS011;3529;53.244;10.414;2023-04-15T00:12:58;2.03;;;1.93;;
6977;SDS011;3529;53.244;10.414;2023-04-15T00:15:24;2.60;;;2.07;;
6977;SDS011;3529;53.244;10.414;2023-04-15T00:17:51;2.40;;;2.27;;
6977;SDS011;3529;53.244;10.414;2023-04-15T00:20:16;1.90;;;1.80;;
6977;SDS011;3529;53.244;10.414;2023-04-15T00:22:42;1.50;;;1.50;;
6977;SDS011;3529;53.244;10.414;2023-04-15T00:25:08;1.53;;;1.50;;
6977;SDS011;3529;53.244;10.414;2023-04-15T00:27:33;1.70;;;1.70;;
6977;SDS011;3529;53.244;10.414;2023-04-15T00:29:59;2.13;;;2.03;;
6977;SDS011;3529;53.244;10.414;2023-04-15T00:32:25;2.37;;;2.17;;
6977;SDS011;3529;53.244;10.414;2023-04-15T00:34:50;1.87;;;1.87;;
6977;SDS011;3529;53.244;10.414;2023-04-15T00:37:16;2.20;;;2.10;;
6977;SDS011;3529;53.244;10.414;2023-04-15T00:39:42;2.10;;;2.00;;
6977;SDS011;3529;53.244;10.414;2023-04-15T00:42:08;2.47;;;2.27;;
6977;SDS011;3529;53.244;10.414;2023-04-15T00:44:34;2.03;;;1.97;;
6977;SDS011;3529;53.244;10.414;2023-04-15T00:47:00;2.17;;;2.07;;
6977;SDS011;3529;53.244;10.414;2023-04-15T00:49:27;1.80;;;1.70;;
6977;SDS011;3529;53.244;10.414;2023-04-15T00:51:53;1.57;;;1.57;;
6977;SDS011;3529;53.244;10.414;2023-04-15T00:54:19;1.70;;;1.70;;
6977;SDS011;3529;53.244;10.414;2023-04-15T00:56:45;1.67;;;1.60;;
6977;SDS011;3529;53.244;10.414;2023-04-15T00:59:11;1.50;;;1.50;;
6977;SDS011;3529;53.244;10.414;2023-04-15T01:01:37;2.23;;;2.13;;
6977;SDS011;3529;53.244;10.414;2023-04-15T01:04:02;2.10;;;2.00;;
6977;SDS011;3529;53.244;10.414;2023-04-15T01:06:29;1.93;;;1.83;;
6977;SDS011;3529;53.244;10.414;2023-04-15T01:08:56;1.70;;;1.70;;
6977;SDS011;3529;53.244;10.414;2023-04-15T01:11:22;1.63;;;1.63;;
6977;SDS011;3529;53.244;10.414;2023-04-15T01:13:49;1.87;;;1.80;;
6977;SDS011;3529;53.244;10.414;2023-04-15T01:16:16;1.50;;;1.50;;
6977;SDS011;3529;53.244;10.414;2023-04-15T01:18:43;2.20;;;2.00;;
6977;SDS011;3529;53.244;10.414;2023-04-15T01:21:09;1.80;;;1.80;;
6977;SDS011;3529;53.244;10.414;2023-04-15T01:23:36;1.70;;;1.70;;
6977;SDS011;3529;53.244;10.414;2023-04-15T01:26:03;1.80;;;1.80;;
6977;SDS011;3529;53.244;10.414;2023-04-15T01:28:32;1.90;;;1.80;;
6977;SDS011;3529;53.244;10.414;2023-04-15T01:31:08;1.57;;;1.57;;
6977;SDS011;3529;53.244;10.414;2023-04-15T01:33:38;2.17;;;2.07;;
6977;SDS011;3529;53.244;10.414;2023-04-15T01:36:05;2.10;;;2.00;;
6977;SDS011;3529;53.244;10.414;2023-04-15T01:38:32;2.13;;;2.03;;
6977;SDS011;3529;53.244;10.414;2023-04-15T01:40:58;1.60;;;1.60;;
6977;SDS011;3529;53.244;10.414;2023-04-15T01:43:24;1.60;;;1.60;;
6977;SDS011;3529;53.244;10.414;2023-04-15T01:45:50;1.60;;;1.60;;
6977;SDS011;3529;53.244;10.414;2023-04-15T01:48:16;1.93;;;1.83;;
6977;SDS011;3529;53.244;10.414;2023-04-15T01:50:42;2.00;;;1.90;;
6977;SDS011;3529;53.244;10.414;2023-04-15T01:53:07;1.60;;;1.60;;
6977;SDS011;3529;53.244;10.414;2023-04-15T01:55:33;2.20;;;2.10;;
6977;SDS011;3529;53.244;10.414;2023-04-15T01:57:59;1.90;;;1.80;;
6977;SDS011;3529;53.244;10.414;2023-04-15T02:00:25;1.67;;;1.67;;
6977;SDS011;3529;53.244;10.414;2023-04-15T02:02:51;2.10;;;2.00;;
6977;SDS011;3529;53.244;10.414;2023-04-15T02:05:17;1.67;;;1.57;;
6977;SDS011;3529;53.244;10.414;2023-04-15T02:07:44;2.07;;;1.97;;
6977;SDS011;3529;53.244;10.414;2023-04-15T02:10:09;2.10;;;1.90;;
6977;SDS011;3529;53.244;10.414;2023-04-15T02:12:37;1.57;;;1.57;;
6977;SDS011;3529;53.244;10.414;2023-04-15T02:15:03;1.60;;;1.60;;
6977;SDS011;3529;53.244;10.414;2023-04-15T02:17:29;2.10;;;2.00;;
6977;SDS011;3529;53.244;10.414;2023-04-15T02:19:58;2.00;;;1.90;;
6977;SDS011;3529;53.244;10.414;2023-04-15T02:22:24;1.53;;;1.53;;
6977;SDS011;3529;53.244;10.414;2023-04-15T02:24:51;2.47;;;2.37;;
6977;SDS011;3529;53.244;10.414;2023-04-15T02:27:16;2.03;;;1.93;;
6977;SDS011;3529;53.244;10.414;2023-04-15T02:29:45;2.20;;;2.10;;
6977;SDS011;3529;53.244;10.414;2023-04-15T02:32:11;1.60;;;1.60;;
6977;SDS011;3529;53.244;10.414;2023-04-15T02:34:38;2.00;;;1.90;;
6977;SDS011;3529;53.244;10.414;2023-04-15T02:37:05;1.80;;;1.80;;
6977;SDS011;3529;53.244;10.414;2023-04-15T02:39:31;1.60;;;1.60;;
6977;SDS011;3529;53.244;10.414;2023-04-15T02:41:57;2.33;;;2.13;;
6977;SDS011;3529;53.244;10.414;2023-04-15T02:44:24;2.03;;;1.93;;
6977;SDS011;3529;53.244;10.414;2023-04-15T02:46:51;1.60;;;1.60;;
6977;SDS011;3529;53.244;10.414;2023-04-15T02:49:19;2.23;;;2.13;;
6977;SDS011;3529;53.244;10.414;2023-04-15T02:51:45;2.00;;;1.90;;
6977;SDS011;3529;53.244;10.414;2023-04-15T02:54:13;1.93;;;1.83;;
6977;SDS011;3529;53.244;10.414;2023-04-15T02:56:40;2.00;;;1.90;;
6977;SDS011;3529;53.244;10.414;2023-04-15T02:59:06;2.23;;;2.13;;
6977;SDS011;3529;53.244;10.414;2023-04-15T03:01:31;1.97;;;1.87;;
6977;SDS011;3529;53.244;10.414;2023-04-15T03:03:57;2.03;;;1.93;;
6977;SDS011;3529;53.244;10.414;2023-04-15T03:06:22;2.93;;;2.83;;
6977;SDS011;3529;53.244;10.414;2023-04-15T03:08:48;1.83;;;1.80;;
6977;SDS011;3529;53.244;10.414;2023-04-15T03:11:14;1.70;;;1.70;;
6977;SDS011;3529;53.244;10.414;2023-04-15T03:13:41;1.80;;;1.77;;
6977;SDS011;3529;53.244;10.414;2023-04-15T03:16:07;1.73;;;1.73;;
6977;SDS011;3529;53.244;10.414;2023-04-15T03:18:33;2.73;;;2.63;;
6977;SDS011;3529;53.244;10.414;2023-04-15T03:21:00;1.93;;;1.87;;
6977;SDS011;3529;53.244;10.414;2023-04-15T03:23:26;1.93;;;1.83;;
6977;SDS011;3529;53.244;10.414;2023-04-15T03:25:51;1.73;;;1.67;;
6977;SDS011;3529;53.244;10.414;2023-04-15T03:28:19;1.80;;;1.80;;
6977;SDS011;3529;53.244;10.414;2023-04-15T03:30:45;2.23;;;2.10;;
6977;SDS011;3529;53.244;10.414;2023-04-15T03:33:11;1.70;;;1.60;;
6977;SDS011;3529;53.244;10.414;2023-04-15T03:35:36;1.60;;;1.60;;
6977;SDS011;3529;53.244;10.414;2023-04-15T03:38:02;1.70;;;1.70;;
6977;SDS011;3529;53.244;10.414;2023-04-15T03:40:28;2.13;;;2.03;;
6977;SDS011;3529;53.244;10.414;2023-04-15T03:42:53;1.60;;;1.60;;
6977;SDS011;3529;53.244;10.414;2023-04-15T03:45:19;2.10;;;2.00;;
6977;SDS011;3529;53.244;10.414;2023-04-15T03:47:45;2.20;;;2.10;;
6977;SDS011;3529;53.244;10.414;2023-04-15T03:50:11;2.53;;;2.33;;
6977;SDS011;3529;53.244;10.414;2023-04-15T03:52:36;2.37;;;2.27;;
6977;SDS011;3529;53.244;10.414;2023-04-15T03:55:02;2.50;;;2.40;;
6977;SDS011;3529;53.244;10.414;2023-04-15T03:57:28;2.23;;;2.00;;
6977;SDS011;3529;53.244;10.414;2023-04-15T03:59:54;2.80;;;2.70;;
6977;SDS011;3529;53.244;10.414;2023-04-15T04:02:19;1.70;;;1.70;;
6977;SDS011;3529;53.244;10.414;2023-04-15T04:04:46;3.67;;;2.40;;
6977;SDS011;3529;53.244;10.414;2023-04-15T04:07:16;2.00;;;1.90;;
6977;SDS011;3529;53.244;10.414;2023-04-15T04:09:42;2.10;;;2.00;;
6977;SDS011;3529;53.244;10.414;2023-04-15T04:12:07;2.37;;;2.27;;
6977;SDS011;3529;53.244;10.414;2023-04-15T04:14:33;2.13;;;2.03;;
6977;SDS011;3529;53.244;10.414;2023-04-15T04:16:59;3.07;;;2.87;;
6977;SDS011;3529;53.244;10.414;2023-04-15T04:19:24;2.43;;;2.33;;
6977;SDS011;3529;53.244;10.414;2023-04-15T04:21:50;2.20;;;2.10;;
6977;SDS011;3529;53.244;10.414;2023-04-15T04:24:16;2.37;;;2.17;;
6977;SDS011;3529;53.244;10.414;2023-04-15T04:26:42;2.27;;;2.17;;
6977;SDS011;3529;53.244;10.414;2023-04-15T04:29:07;3.07;;;2.67;;
6977;SDS011;3529;53.244;10.414;2023-04-15T04:31:33;2.50;;;2.40;;
6977;SDS011;3529;53.244;10.414;2023-04-15T04:33:59;2.20;;;2.10;;
6977;SDS011;3529;53.244;10.414;2023-04-15T04:36:24;3.63;;;2.83;;
6977;SDS011;3529;53.244;10.414;2023-04-15T04:38:50;3.43;;;3.23;;
6977;SDS011;3529;53.244;10.414;2023-04-15T04:41:16;2.20;;;2.10;;
6977;SDS011;3529;53.244;10.414;2023-04-15T04:43:42;2.47;;;2.37;;
6977;SDS011;3529;53.244;10.414;2023-04-15T04:46:08;3.23;;;2.93;;
6977;SDS011;3529;53.244;10.414;2023-04-15T04:48:34;2.57;;;2.47;;
6977;SDS011;3529;53.244;10.414;2023-04-15T04:50:59;2.47;;;2.33;;
6977;SDS011;3529;53.244;10.414;2023-04-15T04:53:26;1.80;;;1.80;;
6977;SDS011;3529;53.244;10.414;2023-04-15T04:55:52;2.23;;;2.13;;
6977;SDS011;3529;53.244;10.414;2023-04-15T04:58:17;3.90;;;3.60;;
6977;SDS011;3529;53.244;10.414;2023-04-15T05:00:43;2.17;;;2.07;;
6977;SDS011;3529;53.244;10.414;2023-04-15T05:03:09;3.20;;;3.00;;
6977;SDS011;3529;53.244;10.414;2023-04-15T05:05:34;2.27;;;2.17;;
6977;SDS011;3529;53.244;10.414;2023-04-15T05:08:03;2.90;;;2.77;;
6977;SDS011;3529;53.244;10.414;2023-04-15T05:10:29;3.07;;;2.87;;
6977;SDS011;3529;53.244;10.414;2023-04-15T05:12:55;3.10;;;2.90;;
6977;SDS011;3529;53.244;10.414;2023-04-15T05:15:21;2.77;;;2.53;;
6977;SDS011;3529;53.244;10.414;2023-04-15T05:17:47;2.60;;;2.47;;
6977;SDS011;3529;53.244;10.414;2023-04-15T05:20:12;2.37;;;2.27;;
6977;SDS011;3529;53.244;10.414;2023-04-15T05:22:38;2.10;;;2.00;;
6977;SDS011;3529;53.244;10.414;2023-04-15T05:25:04;2.80;;;2.70;;
6977;SDS011;3529;53.244;10.414;2023-04-15T05:27:29;1.80;;;1.80;;
6977;SDS011;3529;53.244;10.414;2023-04-15T05:29:55;2.00;;;1.90;;
6977;SDS011;3529;53.244;10.414;2023-04-15T05:32:21;3.00;;;2.80;;
6977;SDS011;3529;53.244;10.414;2023-04-15T05:34:47;3.00;;;2.83;;
6977;SDS011;3529;53.244;10.414;2023-04-15T05:37:12;2.77;;;2.67;;
6977;SDS011;3529;53.244;10.414;2023-04-15T05:39:38;2.30;;;2.20;;
6977;SDS011;3529;53.244;10.414;2023-04-15T05:42:03;2.90;;;2.63;;
6977;SDS011;3529;53.244;10.414;2023-04-15T05:44:30;2.47;;;2.37;;
6977;SDS011;3529;53.244;10.414;2023-04-15T05:46:55;2.77;;;2.53;;
6977;SDS011;3529;53.244;10.414;2023-04-15T05:49:21;2.50;;;2.40;;
6977;SDS011;3529;53.244;10.414;2023-04-15T05:51:47;1.90;;;1.83;;
6977;SDS011;3529;53.244;10.414;2023-04-15T05:54:13;2.70;;;2.47;;
6977;SDS011;3529;53.244;10.414;2023-04-15T05:56:39;2.13;;;2.03;;
6977;SDS011;3529;53.244;10.414;2023-04-15T05:59:04;3.07;;;1.90;;
6977;SDS011;3529;53.244;10.414;2023-04-15T06:01:30;2.70;;;2.00;;
6977;SDS011;3529;53.244;10.414;2023-04-15T06:03:57;3.17;;;3.07;;
6977;SDS011;3529;53.244;10.414;2023-04-15T06:06:23;2.67;;;2.57;;
6977;SDS011;3529;53.244;10.414;2023-04-15T06:08:49;3.97;;;3.63;;
6977;SDS011;3529;53.244;10.414;2023-04-15T06:11:14;2.20;;;2.10;;
6977;SDS011;3529;53.244;10.414;2023-04-15T06:13:40;2.87;;;2.27;;
6977;SDS011;3529;53.244;10.414;2023-04-15T06:16:06;2.37;;;2.27;;
6977;SDS011;3529;53.244;10.414;2023-04-15T06:18:32;3.23;;;3.00;;
6977;SDS011;3529;53.244;10.414;2023-04-15T06:20:57;2.97;;;2.80;;
6977;SDS011;3529;53.244;10.414;2023-04-15T06:23:23;3.87;;;3.57;;
6977;SDS011;3529;53.244;10.414;2023-04-15T06:25:49;1.97;;;1.90;;
6977;SDS011;3529;53.244;10.414;2023-04-15T06:28:14;2.53;;;2.37;;
6977;SDS011;3529;53.244;10.414;2023-04-15T06:30:40;2.50;;;2.40;;
6977;SDS011;3529;53.244;10.414;2023-04-15T06:33:06;3.50;;;3.30;;
6977;SDS011;3529;53.244;10.414;2023-04-15T06:35:31;3.83;;;3.53;;
6977;SDS011;3529;53.244;10.414;2023-04-15T06:38:00;3.13;;;2.93;;
6977;SDS011;3529;53.244;10.414;2023-04-15T06:40:25;3.43;;;3.23;;
6977;SDS011;3529;53.244;10.414;2023-04-15T06:42:51;7.17;;;3.97;;
6977;SDS011;3529;53.244;10.414;2023-04-15T06:45:17;3.47;;;3.27;;
6977;SDS011;3529;53.244;10.414;2023-04-15T06:47:43;2.43;;;2.17;;
6977;SDS011;3529;53.244;10.414;2023-04-15T06:50:08;2.70;;;2.60;;
6977;SDS011;3529;53.244;10.414;2023-04-15T06:52:35;2.27;;;2.17;;
6977;SDS011;3529;53.244;10.414;2023-04-15T06:55:01;3.43;;;3.13;;
6977;SDS011;3529;53.244;10.414;2023-04-15T06:57:26;4.10;;;3.37;;
6977;SDS011;3529;53.244;10.414;2023-04-15T06:59:52;2.47;;;2.37;;
6977;SDS011;3529;53.244;10.414;2023-04-15T07:02:21;3.63;;;3.27;;
6977;SDS011;3529;53.244;10.414;2023-04-15T07:04:47;3.97;;;3.70;;
6977;SDS011;3529;53.244;10.414;2023-04-15T07:07:12;3.83;;;3.57;;
6977;SDS011;3529;53.244;10.414;2023-04-15T07:09:39;4.63;;;2.70;;
6977;SDS011;3529;53.244;10.414;2023-04-15T07:12:04;4.27;;;3.47;;
6977;SDS011;3529;53.244;10.414;2023-04-15T07:14:30;3.40;;;3.13;;
6977;SDS011;3529;53.244;10.414;2023-04-15T07:16:56;2.73;;;2.53;;
6977;SDS011;3529;53.244;10.414;2023-04-15T07:19:21;2.50;;;2.30;;
6977;SDS011;3529;53.244;10.414;2023-04-15T07:21:47;2.40;;;2.30;;
6977;SDS011;3529;53.244;10.414;2023-04-15T07:24:13;2.30;;;2.20;;
6977;SDS011;3529;53.244;10.414;2023-04-15T07:26:42;4.20;;;3.90;;
6977;SDS011;3529;53.244;10.414;2023-04-15T07:29:08;19.83;;;10.37;;
6977;SDS011;3529;53.244;10.414;2023-04-15T07:31:34;9.60;;;4.77;;
6977;SDS011;3529;53.244;10.414;2023-04-15T07:34:01;6.43;;;5.77;;
6977;SDS011;3529;53.244;10.414;2023-04-15T07:36:27;5.93;;;4.70;;
6977;SDS011;3529;53.244;10.414;2023-04-15T07:38:53;2.90;;;2.70;;
6977;SDS011;3529;53.244;10.414;2023-04-15T07:41:19;3.77;;;3.57;;
6977;SDS011;3529;53.244;10.414;2023-04-15T07:43:45;3.63;;;2.97;;
6977;SDS011;3529;53.244;10.414;2023-04-15T07:46:12;4.47;;;4.03;;
6977;SDS011;3529;53.244;10.414;2023-04-15T07:48:38;6.97;;;4.63;;
6977;SDS011;3529;53.244;10.414;2023-04-15T07:51:04;3.40;;;3.20;;
6977;SDS011;3529;53.244;10.414;2023-04-15T07:53:29;4.57;;;4.20;;
6977;SDS011;3529;53.244;10.414;2023-04-15T07:55:56;2.97;;;2.77;;
6977;SDS011;3529;53.244;10.414;2023-04-15T07:58:22;6.13;;;2.93;;
6977;SDS011;3529;53.244;10.414;2023-04-15T08:00:48;3.83;;;3.63;;
6977;SDS011;3529;53.244;10.414;2023-04-15T08:03:14;5.27;;;4.87;;
6977;SDS011;3529;53.244;10.414;2023-04-15T08:05:40;3.20;;;3.00;;
6977;SDS011;3529;53.244;10.414;2023-04-15T08:08:05;3.83;;;3.53;;
6977;SDS011;3529;53.244;10.414;2023-04-15T08:10:32;2.90;;;2.67;;
6977;SDS011;3529;53.244;10.414;2023-04-15T08:12:57;5.10;;;4.03;;
6977;SDS011;3529;53.244;10.414;2023-04-15T08:15:23;5.37;;;4.87;;
6977;SDS011;3529;53.244;10.414;2023-04-15T08:17:49;9.57;;;5.20;;
6977;SDS011;3529;53.244;10.414;2023-04-15T08:20:15;4.63;;;4.13;;
6977;SDS011;3529;53.244;10.414;2023-04-15T08:22:40;5.53;;;5.13;;
6977;SDS011;3529;53.244;10.414;2023-04-15T08:25:06;2.93;;;2.80;;
6977;SDS011;3529;53.244;10.414;2023-04-15T08:27:33;4.03;;;3.63;;
6977;SDS011;3529;53.244;10.414;2023-04-15T08:29:58;3.87;;;3.43;;
6977;SDS011;3529;53.244;10.414;2023-04-15T08:32:24;3.93;;;3.63;;
6977;SDS011;3529;53.244;10.414;2023-04-15T08:34:50;5.53;;;4.33;;
6977;SDS011;3529;53.244;10.414;2023-04-15T08:37:17;3.20;;;3.00;;
6977;SDS011;3529;53.244;10.414;2023-04-15T08:39:42;5.97;;;5.07;;
6977;SDS011;3529;53.244;10.414;2023-04-15T08:42:15;4.90;;;4.50;;
6977;SDS011;3529;53.244;10.414;2023-04-15T08:44:43;4.63;;;4.30;;
6977;SDS011;3529;53.244;10.414;2023-04-15T08:47:12;7.83;;;7.17;;
6977;SDS011;3529;53.244;10.414;2023-04-15T08:49:41;7.00;;;4.50;;
6977;SDS011;3529;53.244;10.414;2023-04-15T08:52:07;3.13;;;2.57;;
6977;SDS011;3529;53.244;10.414;2023-04-15T08:54:34;3.33;;;3.13;;
6977;SDS011;3529;53.244;10.414;2023-04-15T08:57:00;5.53;;;4.97;;
6977;SDS011;3529;53.244;10.414;2023-04-15T08:59:29;7.33;;;4.27;;
6977;SDS011;3529;53.244;10.414;2023-04-15T09:01:56;6.40;;;3.73;;
6977;SDS011;3529;53.244;10.414;2023-04-15T09:04:22;5.50;;;5.10;;
6977;SDS011;3529;53.244;10.414;2023-04-15T09:06:48;3.67;;;3.17;;
6977;SDS011;3529;53.244;10.414;2023-04-15T09:09:14;4.10;;;3.77;;
6977;SDS011;3529;53.244;10.414;2023-04-15T09:11:39;3.33;;;3.13;;
6977;SDS011;3529;53.244;10.414;2023-04-15T09:14:06;3.73;;;3.43;;
6977;SDS011;3529;53.244;10.414;2023-04-15T09:16:31;5.07;;;4.57;;
6977;SDS011;3529;53.244;10.414;2023-04-15T09:19:23;3.33;;;2.77;;
6977;SDS011;3529;53.244;10.414;2023-04-15T09:21:50;3.60;;;3.30;;
6977;SDS011;3529;53.244;10.414;2023-04-15T09:24:23;3.97;;;3.67;;
6977;SDS011;3529;53.244;10.414;2023-04-15T09:26:52;4.10;;;3.47;;
6977;SDS011;3529;53.244;10.414;2023-04-15T09:29:19;4.90;;;4.43;;
6977;SDS011;3529;53.244;10.414;2023-04-15T09:31:48;10.40;;;5.27;;
6977;SDS011;3529;53.244;10.414;2023-04-15T09:34:13;3.57;;;3.23;;
6977;SDS011;3529;53.244;10.414;2023-04-15T09:36:52;4.03;;;3.63;;
6977;SDS011;3529;53.244;10.414;2023-04-15T09:39:20;3.50;;;3.30;;
6977;SDS011;3529;53.244;10.414;2023-04-15T09:41:46;2.50;;;2.40;;
6977;SDS011;3529;53.244;10.414;2023-04-15T09:44:27;7.70;;;4.47;;
6977;SDS011;3529;53.244;10.414;2023-04-15T09:46:53;3.67;;;3.47;;
6977;SDS011;3529;53.244;10.414;2023-04-15T09:49:18;4.23;;;3.93;;
6977;SDS011;3529;53.244;10.414;2023-04-15T09:51:44;4.60;;;3.97;;
6977;SDS011;3529;53.244;10.414;2023-04-15T09:54:11;4.30;;;3.80;;
6977;SDS011;3529;53.244;10.414;2023-04-15T09:56:37;3.73;;;3.47;;
6977;SDS011;3529;53.244;10.414;2023-04-15T09:59:09;2.70;;;2.60;;
6977;SDS011;3529;53.244;10.414;2023-04-15T10:01:34;4.10;;;3.78;;
6977;SDS011;3529;53.244;10.414;2023-04-15T10:04:01;3.43;;;3.17;;
6977;SDS011;3529;53.244;10.414;2023-04-15T10:06:28;3.97;;;3.67;;
6977;SDS011;3529;53.244;10.414;2023-04-15T10:08:55;3.30;;;3.00;;
6977;SDS011;3529;53.244;10.414;2023-04-15T10:11:22;4.33;;;3.97;;
6977;SDS011;3529;53.244;10.414;2023-04-15T10:13:49;3.90;;;3.70;;
6977;SDS011;3529;53.244;10.414;2023-04-15T10:16:17;3.70;;;3.10;;
6977;SDS011;3529;53.244;10.414;2023-04-15T10:18:45;4.80;;;3.90;;
6977;SDS011;3529;53.244;10.414;2023-04-15T10:21:12;3.85;;;3.33;;
6977;SDS011;3529;53.244;10.414;2023-04-15T10:23:42;4.80;;;4.03;;
6977;SDS011;3529;53.244;10.414;2023-04-15T10:26:11;4.45;;;3.67;;
6977;SDS011;3529;53.244;10.414;2023-04-15T10:28:39;5.85;;;3.67;;
6977;SDS011;3529;53.244;10.414;2023-04-15T10:31:08;6.00;;;2.90;;
6977;SDS011;3529;53.244;10.414;2023-04-15T10:33:39;11.30;;;3.95;;
6977;SDS011;3529;53.244;10.414;2023-04-15T10:36:06;4.00;;;3.80;;
6977;SDS011;3529;53.244;10.414;2023-04-15T10:38:44;5.80;;;4.85;;
6977;SDS011;3529;53.244;10.414;2023-04-15T10:41:11;6.63;;;3.45;;
6977;SDS011;3529;53.244;10.414;2023-04-15T10:43:38;4.45;;;4.13;;
6977;SDS011;3529;53.244;10.414;2023-04-15T10:46:05;4.15;;;3.85;;
6977;SDS011;3529;53.244;10.414;2023-04-15T10:48:31;3.58;;;3.25;;
6977;SDS011;3529;53.244;10.414;2023-04-15T10:50:57;4.32;;;3.47;;
6977;SDS011;3529;53.244;10.414;2023-04-15T10:53:27;5.32;;;4.55;;
6977;SDS011;3529;53.244;10.414;2023-04-15T10:55:54;4.45;;;4.13;;
6977;SDS011;3529;53.244;10.414;2023-04-15T10:58:22;12.73;;;5.05;;
6977;SDS011;3529;53.244;10.414;2023-04-15T11:00:49;4.82;;;4.43;;
6977;SDS011;3529;53.244;10.414;2023-04-15T11:03:19;3.95;;;3.65;;
6977;SDS011;3529;53.244;10.414;2023-04-15T11:06:03;4.40;;;4.00;;
6977;SDS011;3529;53.244;10.414;2023-04-15T11:11:22;3.67;;;3.40;;
6977;SDS011;3529;53.244;10.414;2023-04-15T11:14:07;4.95;;;4.55;;
6977;SDS011;3529;53.244;10.414;2023-04-15T11:16:42;5.97;;;3.10;;
6977;SDS011;3529;53.244;10.414;2023-04-15T11:19:10;4.00;;;3.70;;
6977;SDS011;3529;53.244;10.414;2023-04-15T11:21:36;3.90;;;2.53;;
6977;SDS011;3529;53.244;10.414;2023-04-15T11:24:02;3.95;;;3.65;;
6977;SDS011;3529;53.244;10.414;2023-04-15T11:26:28;4.72;;;4.28;;
6977;SDS011;3529;53.244;10.414;2023-04-15T11:28:53;5.47;;;5.03;;
6977;SDS011;3529;53.244;10.414;2023-04-15T11:31:19;3.28;;;3.00;;
6977;SDS011;3529;53.244;10.414;2023-04-15T11:33:57;4.20;;;3.90;;
6977;SDS011;3529;53.244;10.414;2023-04-15T11:36:24;2.67;;;2.53;;
6977;SDS011;3529;53.244;10.414;2023-04-15T11:38:54;3.40;;;3.17;;
6977;SDS011;3529;53.244;10.414;2023-04-15T11:41:20;3.90;;;2.80;;
6977;SDS011;3529;53.244;10.414;2023-04-15T11:43:47;5.63;;;3.67;;
6977;SDS011;3529;53.244;10.414;2023-04-15T11:46:13;11.00;;;3.70;;
6977;SDS011;3529;53.244;10.414;2023-04-15T11:48:41;3.05;;;2.85;;
6977;SDS011;3529;53.244;10.414;2023-04-15T11:51:08;3.72;;;3.40;;
6977;SDS011;3529;53.244;10.414;2023-04-15T11:56:07;6.50;;;2.95;;
6977;SDS011;3529;53.244;10.414;2023-04-15T11:58:35;4.20;;;3.90;;
6977;SDS011;3529;53.244;10.414;2023-04-15T12:01:04;3.97;;;3.67;;
6977;SDS011;3529;53.244;10.414;2023-04-15T12:06:13;6.10;;;3.13;;
6977;SDS011;3529;53.244;10.414;2023-04-15T12:14:26;4.68;;;3.90;;
6977;SDS011;3529;53.244;10.414;2023-04-15T12:16:53;3.30;;;3.10;;
6977;SDS011;3529;53.244;10.414;2023-04-15T12:19:26;5.75;;;3.35;;
6977;SDS011;3529;53.244;10.414;2023-04-15T12:21:59;3.38;;;3.15;;
6977;SDS011;3529;53.244;10.414;2023-04-15T12:24:26;4.25;;;3.90;;
6977;SDS011;3529;53.244;10.414;2023-04-15T12:26:56;4.32;;;4.03;;
6977;SDS011;3529;53.244;10.414;2023-04-15T12:29:26;3.03;;;2.88;;
6977;SDS011;3529;53.244;10.414;2023-04-15T12:32:11;3.38;;;3.10;;
6977;SDS011;3529;53.244;10.414;2023-04-15T12:34:58;4.55;;;4.15;;
6977;SDS011;3529;53.244;10.414;2023-04-15T12:37:23;3.33;;;3.13;;
6977;SDS011;3529;53.244;10.414;2023-04-15T12:39:50;4.18;;;3.78;;
6977;SDS011;3529;53.244;10.414;2023-04-15T12:42:16;2.20;;;2.10;;
6977;SDS011;3529;53.244;10.414;2023-04-15T12:44:42;3.47;;;3.17;;
6977;SDS011;3529;53.244;10.414;2023-04-15T12:47:08;4.88;;;2.97;;
6977;SDS011;3529;53.244;10.414;2023-04-15T12:49:34;3.97;;;3.60;;
6977;SDS011;3529;53.244;10.414;2023-04-15T12:52:02;4.43;;;3.25;;
6977;SDS011;3529;53.244;10.414;2023-04-15T12:54:28;2.45;;;2.35;;
6977;SDS011;3529;53.244;10.414;2023-04-15T12:56:56;3.55;;;2.88;;
6977;SDS011;3529;53.244;10.414;2023-04-15T12:59:22;3.55;;;3.35;;
6977;SDS011;3529;53.244;10.414;2023-04-15T13:01:48;3.45;;;3.20;;
6977;SDS011;3529;53.244;10.414;2023-04-15T13:04:14;7.43;;;3.88;;
6977;SDS011;3529;53.244;10.414;2023-04-15T13:06:41;3.72;;;3.42;;
6977;SDS011;3529;53.244;10.414;2023-04-15T13:09:06;2.83;;;2.63;;
6977;SDS011;3529;53.244;10.414;2023-04-15T13:11:32;3.15;;;2.88;;
6977;SDS011;3529;53.244;10.414;2023-04-15T13:14:02;3.03;;;2.80;;
6977;SDS011;3529;53.244;10.414;2023-04-15T13:16:29;2.55;;;2.40;;
6977;SDS011;3529;53.244;10.414;2023-04-15T13:18:55;5.10;;;3.03;;
6977;SDS011;3529;53.244;10.414;2023-04-15T13:21:21;2.88;;;2.67;;
6977;SDS011;3529;53.244;10.414;2023-04-15T13:23:47;3.72;;;2.88;;
6977;SDS011;3529;53.244;10.414;2023-04-15T13:26:16;3.47;;;2.80;;
6977;SDS011;3529;53.244;10.414;2023-04-15T13:28:42;3.50;;;3.22;;
6977;SDS011;3529;53.244;10.414;2023-04-15T13:31:08;4.55;;;4.15;;
6977;SDS011;3529;53.244;10.414;2023-04-15T13:33:34;3.92;;;3.33;;
6977;SDS011;3529;53.244;10.414;2023-04-15T13:35:59;4.03;;;3.60;;
6977;SDS011;3529;53.244;10.414;2023-04-15T13:38:25;3.22;;;2.95;;
6977;SDS011;3529;53.244;10.414;2023-04-15T13:40:50;3.90;;;3.60;;
6977;SDS011;3529;53.244;10.414;2023-04-15T13:43:16;3.40;;;3.13;;
6977;SDS011;3529;53.244;10.414;2023-04-15T13:45:42;4.03;;;2.50;;
6977;SDS011;3529;53.244;10.414;2023-04-15T13:48:08;4.35;;;4.03;;
6977;SDS011;3529;53.244;10.414;2023-04-15T13:50:34;2.67;;;2.47;;
6977;SDS011;3529;53.244;10.414;2023-04-15T13:52:59;3.10;;;2.90;;
6977;SDS011;3529;53.244;10.414;2023-04-15T13:55:25;7.10;;;2.60;;
6977;SDS011;3529;53.244;10.414;2023-04-15T13:57:51;3.55;;;2.60;;
6977;SDS011;3529;53.244;10.414;2023-04-15T14:00:17;3.10;;;2.90;;
6977;SDS011;3529;53.244;10.414;2023-04-15T14:02:42;4.18;;;3.53;;
6977;SDS011;3529;53.244;10.414;2023-04-15T14:05:09;3.42;;;3.20;;
6977;SDS011;3529;53.244;10.414;2023-04-15T14:07:34;2.97;;;2.70;;
6977;SDS011;3529;53.244;10.414;2023-04-15T14:10:00;3.20;;;2.75;;
6977;SDS011;3529;53.244;10.414;2023-04-15T14:12:26;4.20;;;3.35;;
6977;SDS011;3529;53.244;10.414;2023-04-15T14:14:51;2.53;;;2.42;;
6977;SDS011;3529;53.244;10.414;2023-04-15T14:17:17;4.20;;;3.88;;
6977;SDS011;3529;53.244;10.414;2023-04-15T14:19:43;3.38;;;3.17;;
6977;SDS011;3529;53.244;10.414;2023-04-15T14:22:08;3.53;;;3.22;;
6977;SDS011;3529;53.244;10.414;2023-04-15T14:24:34;2.97;;;2.72;;
6977;SDS011;3529;53.244;10.414;2023-04-15T14:27:00;2.75;;;2.65;;
6977;SDS011;3529;53.244;10.414;2023-04-15T14:29:26;2.47;;;2.25;;
6977;SDS011;3529;53.244;10.414;2023-04-15T14:31:52;4.03;;;3.13;;
6977;SDS011;3529;53.244;10.414;2023-04-15T14:34:18;2.20;;;2.10;;
6977;SDS011;3529;53.244;10.414;2023-04-15T14:36:46;2.72;;;2.55;;
6977;SDS011;3529;53.244;10.414;2023-04-15T14:39:12;5.28;;;3.28;;
6977;SDS011;3529;53.244;10.414;2023-04-15T14:41:38;5.47;;;3.17;;
6977;SDS011;3529;53.244;10.414;2023-04-15T14:44:03;2.22;;;2.13;;
6977;SDS011;3529;53.244;10.414;2023-04-15T14:46:29;2.88;;;2.67;;
6977;SDS011;3529;53.244;10.414;2023-04-15T14:48:55;2.78;;;2.58;;
6977;SDS011;3529;53.244;10.414;2023-04-15T14:51:21;5.15;;;3.45;;
6977;SDS011;3529;53.244;10.414;2023-04-15T14:53:47;5.55;;;2.42;;
6977;SDS011;3529;53.244;10.414;2023-04-15T14:56:12;3.95;;;3.17;;
6977;SDS011;3529;53.244;10.414;2023-04-15T14:58:38;2.40;;;2.30;;
6977;SDS011;3529;53.244;10.414;2023-04-15T15:01:04;2.25;;;2.15;;
6977;SDS011;3529;53.244;10.414;2023-04-15T15:03:30;2.92;;;2.72;;
6977;SDS011;3529;53.244;10.414;2023-04-15T15:05:55;3.40;;;2.80;;
6977;SDS011;3529;53.244;10.414;2023-04-15T15:08:24;2.65;;;2.45;;
6977;SDS011;3529;53.244;10.414;2023-04-15T15:10:50;4.30;;;3.22;;